createdAt,value
2019-01-23T00:02:17.231Z,2.77
2019-01-23T00:04:43.283Z,2.33
2019-01-23T00:07:09.230Z,2.67
2019-01-23T00:09:35.186Z,2.67
2019-01-23T00:12:01.163Z,3.77
2019-01-23T00:14:27.134Z,2.80
2019-01-23T00:16:53.239Z,3.27
2019-01-23T00:19:19.187Z,2.80
2019-01-23T00:21:45.136Z,2.60
2019-01-23T00:24:11.073Z,3.67
2019-01-23T00:26:37.037Z,2.67
2019-01-23T00:29:02.979Z,2.80
2019-01-23T00:31:28.955Z,4.00
2019-01-23T00:33:54.903Z,2.37
2019-01-23T00:36:20.855Z,3.07
2019-01-23T00:38:46.829Z,2.90
2019-01-23T00:41:12.771Z,2.47
2019-01-23T00:43:38.709Z,2.60
2019-01-23T00:46:04.655Z,3.43
2019-01-23T00:48:30.619Z,3.33
2019-01-23T00:50:56.554Z,3.07
2019-01-23T00:53:22.520Z,2.93
2019-01-23T00:55:48.467Z,3.40
2019-01-23T00:58:14.419Z,2.17
2019-01-23T01:00:40.392Z,3.53
2019-01-23T01:03:06.340Z,3.23
2019-01-23T01:05:32.293Z,2.90
2019-01-23T01:07:58.250Z,3.10
2019-01-23T01:10:24.202Z,2.83
2019-01-23T01:12:50.159Z,2.77
2019-01-23T01:15:16.116Z,2.57
2019-01-23T01:17:42.073Z,4.20
2019-01-23T01:20:08.036Z,3.60
2019-01-23T01:22:34.078Z,3.93
2019-01-23T01:25:00.121Z,3.27
2019-01-23T01:27:26.333Z,3.20
2019-01-23T01:29:52.286Z,2.73
2019-01-23T01:32:18.341Z,3.00
2019-01-23T01:34:44.313Z,3.50
2019-01-23T01:37:10.378Z,2.43
2019-01-23T01:39:36.324Z,3.73
2019-01-23T01:42:02.298Z,3.30
2019-01-23T01:44:28.266Z,3.50
2019-01-23T01:46:54.202Z,2.30
2019-01-23T01:49:20.168Z,2.27
2019-01-23T01:51:46.222Z,2.60
2019-01-23T01:54:12.180Z,3.27
2019-01-23T01:56:38.126Z,3.43
2019-01-23T01:59:04.074Z,2.73
2019-01-23T02:01:30.030Z,3.27
2019-01-23T02:03:55.971Z,2.83
2019-01-23T02:06:21.942Z,2.73
2019-01-23T02:08:48.017Z,3.53
2019-01-23T02:11:13.962Z,2.80
2019-01-23T02:13:39.917Z,2.93
2019-01-23T02:16:05.883Z,2.67
2019-01-23T02:18:31.926Z,3.00
2019-01-23T02:20:57.865Z,2.80
2019-01-23T02:23:23.870Z,4.10
2019-01-23T02:25:49.819Z,3.87
2019-01-23T02:28:15.772Z,3.77
2019-01-23T02:30:41.726Z,3.23
2019-01-23T02:33:07.975Z,3.30
2019-01-23T02:35:33.947Z,3.03
2019-01-23T02:37:59.981Z,3.03
2019-01-23T02:40:25.934Z,3.33
2019-01-23T02:42:51.917Z,3.03
2019-01-23T02:45:18.005Z,3.10
2019-01-23T02:47:43.963Z,2.47
2019-01-23T02:50:09.947Z,3.37
2019-01-23T02:52:35.999Z,3.23
2019-01-23T02:55:02.065Z,2.70
2019-01-23T02:57:28.022Z,3.10
2019-01-23T02:59:54.081Z,3.03
2019-01-23T03:02:20.037Z,3.50
2019-01-23T03:04:46.007Z,3.27
2019-01-23T03:07:11.947Z,3.30
2019-01-23T03:09:37.905Z,3.70
2019-01-23T03:12:03.871Z,3.53
2019-01-23T03:14:29.810Z,3.07
2019-01-23T03:16:55.767Z,3.40
2019-01-23T03:19:21.743Z,3.00
2019-01-23T03:21:47.710Z,3.00
2019-01-23T03:24:13.755Z,3.37
2019-01-23T03:26:39.731Z,4.03
2019-01-23T03:29:05.683Z,3.23
2019-01-23T03:31:31.735Z,2.80
2019-01-23T03:33:57.777Z,3.10
2019-01-23T03:36:23.728Z,2.53
2019-01-23T03:38:49.682Z,2.40
2019-01-23T03:41:15.659Z,3.70
2019-01-23T03:43:41.735Z,2.87
2019-01-23T03:46:07.711Z,3.17
2019-01-23T03:48:33.659Z,3.67
2019-01-23T03:50:59.582Z,3.17
2019-01-23T03:53:25.541Z,2.83
2019-01-23T03:55:51.504Z,3.27
2019-01-23T03:58:17.477Z,3.57
2019-01-23T04:00:43.434Z,2.83
2019-01-23T04:03:09.389Z,2.87
2019-01-23T04:05:35.367Z,2.93
2019-01-23T04:08:01.396Z,2.93
2019-01-23T04:10:27.367Z,3.23
2019-01-23T04:12:53.437Z,2.93
2019-01-23T04:15:19.424Z,2.53
2019-01-23T04:17:45.455Z,3.20
2019-01-23T04:20:11.425Z,2.97
2019-01-23T04:22:37.392Z,2.87
2019-01-23T04:25:03.361Z,3.63
2019-01-23T04:27:29.312Z,3.03
2019-01-23T04:29:55.264Z,2.60
2019-01-23T04:32:21.222Z,4.43
2019-01-23T04:34:47.178Z,2.80
2019-01-23T04:37:13.132Z,3.00
2019-01-23T04:39:39.138Z,3.00
2019-01-23T04:42:05.082Z,3.67
2019-01-23T04:44:31.018Z,3.23
2019-01-23T04:46:56.990Z,3.83
2019-01-23T04:49:22.941Z,2.60
2019-01-23T04:51:53.729Z,2.87
2019-01-23T04:54:19.804Z,2.77
2019-01-23T04:56:45.944Z,2.30
2019-01-23T04:59:11.890Z,2.57
2019-01-23T05:01:37.833Z,3.07
2019-01-23T05:04:03.764Z,2.80
2019-01-23T05:06:29.728Z,2.77
2019-01-23T05:08:55.675Z,2.83
2019-01-23T05:11:21.637Z,3.47
2019-01-23T05:13:47.581Z,3.40
2019-01-23T05:16:13.559Z,2.53
2019-01-23T05:18:39.493Z,3.23
2019-01-23T05:21:05.525Z,3.60
2019-01-23T05:23:31.540Z,3.07
2019-01-23T05:25:57.588Z,3.30
2019-01-23T05:28:23.530Z,2.73
2019-01-23T05:30:49.461Z,3.37
2019-01-23T05:33:15.442Z,2.73
2019-01-23T05:35:41.382Z,3.40
2019-01-23T05:38:07.327Z,3.47
2019-01-23T05:40:33.296Z,3.27
2019-01-23T05:42:59.358Z,3.03
2019-01-23T05:45:25.296Z,3.23
2019-01-23T05:47:51.261Z,2.80
2019-01-23T05:50:17.209Z,2.30
2019-01-23T05:52:43.162Z,3.10
2019-01-23T05:55:09.148Z,3.07
2019-01-23T05:57:35.096Z,2.83
2019-01-23T06:00:02.385Z,3.10
2019-01-23T06:02:28.918Z,3.37
2019-01-23T06:04:54.878Z,3.43
2019-01-23T06:07:20.808Z,3.73
2019-01-23T06:09:46.769Z,4.60
2019-01-23T06:12:12.713Z,4.67
2019-01-23T06:14:38.664Z,3.53
2019-01-23T06:17:04.605Z,4.50
2019-01-23T06:19:30.536Z,5.10
2019-01-23T06:21:56.485Z,4.43
2019-01-23T06:24:22.412Z,5.47
2019-01-23T06:26:48.389Z,6.83
2019-01-23T06:29:14.324Z,8.53
2019-01-23T06:31:40.274Z,8.03
2019-01-23T06:34:06.212Z,10.93
2019-01-23T06:36:32.182Z,12.37
2019-01-23T06:38:58.430Z,11.63
2019-01-23T06:41:24.394Z,13.37
2019-01-23T06:43:50.342Z,13.67
2019-01-23T06:46:16.300Z,16.43
2019-01-23T06:48:42.241Z,13.70
2019-01-23T06:51:08.316Z,15.00
2019-01-23T06:53:34.254Z,12.33
2019-01-23T06:56:00.181Z,12.97
2019-01-23T06:58:26.150Z,13.00
2019-01-23T07:00:52.092Z,13.77
2019-01-23T07:03:18.066Z,13.10
2019-01-23T07:05:44.082Z,12.43
2019-01-23T07:08:10.149Z,10.97
2019-01-23T07:10:36.207Z,9.77
2019-01-23T07:13:02.157Z,11.33
2019-01-23T07:15:28.108Z,13.70
2019-01-23T07:17:54.059Z,12.77
2019-01-23T07:20:20.012Z,11.87
2019-01-23T07:22:45.988Z,10.80
2019-01-23T07:25:11.930Z,11.60
2019-01-23T07:27:40.083Z,9.07
2019-01-23T07:30:06.121Z,10.03
2019-01-23T07:32:32.067Z,10.10
2019-01-23T07:34:58.028Z,9.93
2019-01-23T07:37:23.994Z,9.33
2019-01-23T07:39:49.945Z,9.47
2019-01-23T07:42:15.897Z,9.77
2019-01-23T07:44:41.852Z,8.50
2019-01-23T07:47:07.785Z,9.47
2019-01-23T07:49:33.835Z,9.23
2019-01-23T07:51:59.784Z,8.97
2019-01-23T07:54:25.729Z,9.10
2019-01-23T07:56:51.669Z,8.60
2019-01-23T07:59:17.612Z,8.53
2019-01-23T08:01:43.559Z,7.87
2019-01-23T08:04:09.529Z,9.07
2019-01-23T08:06:35.559Z,8.10
2019-01-23T08:09:01.523Z,7.37
2019-01-23T08:11:27.491Z,8.50
2019-01-23T08:13:53.498Z,7.77
2019-01-23T08:16:19.561Z,8.83
2019-01-23T08:18:45.525Z,8.53
2019-01-23T08:21:11.461Z,8.07
2019-01-23T08:23:37.435Z,6.90
2019-01-23T08:26:04.499Z,7.60
2019-01-23T08:28:30.465Z,7.20
2019-01-23T08:30:56.515Z,6.17
2019-01-23T08:33:22.788Z,6.60
2019-01-23T08:35:48.731Z,5.53
2019-01-23T08:38:14.688Z,6.77
2019-01-23T08:40:40.645Z,6.27
2019-01-23T08:43:06.667Z,6.97
2019-01-23T08:45:32.620Z,6.07
2019-01-23T08:47:58.601Z,6.40
2019-01-23T08:50:24.545Z,5.60
2019-01-23T08:52:50.518Z,6.83
2019-01-23T08:55:16.463Z,6.70
2019-01-23T08:57:42.868Z,4.97
2019-01-23T09:00:08.879Z,6.20
2019-01-23T09:02:34.811Z,5.80
2019-01-23T09:05:00.777Z,5.80
2019-01-23T09:07:26.817Z,6.97
2019-01-23T09:09:52.780Z,4.97
2019-01-23T09:12:18.718Z,6.00
2019-01-23T09:14:44.683Z,4.47
2019-01-23T09:17:10.635Z,5.33
2019-01-23T09:19:36.713Z,4.57
2019-01-23T09:22:02.669Z,4.93
2019-01-23T09:24:28.725Z,5.83
2019-01-23T09:26:54.666Z,4.30
2019-01-23T09:29:20.722Z,4.67
2019-01-23T09:31:46.682Z,6.83
2019-01-23T09:34:12.620Z,4.67
2019-01-23T09:36:38.579Z,4.90
2019-01-23T09:39:04.809Z,5.13
2019-01-23T09:41:30.755Z,4.07
2019-01-23T09:43:56.726Z,4.43
2019-01-23T09:46:22.680Z,5.03
2019-01-23T09:48:48.638Z,5.27
2019-01-23T09:51:14.693Z,4.07
2019-01-23T09:53:40.632Z,4.00
2019-01-23T09:56:06.594Z,4.57
2019-01-23T09:58:32.631Z,4.87
2019-01-23T10:00:59.908Z,4.33
2019-01-23T10:03:26.060Z,4.63
2019-01-23T10:05:52.035Z,4.27
2019-01-23T10:08:18.064Z,3.73
2019-01-23T10:10:44.014Z,4.37
2019-01-23T10:13:09.951Z,4.23
2019-01-23T10:15:35.922Z,3.73
2019-01-23T10:18:01.884Z,4.40
2019-01-23T10:20:27.816Z,3.53
2019-01-23T10:22:53.796Z,4.13
2019-01-23T10:25:19.761Z,4.43
2019-01-23T10:27:45.837Z,4.50
2019-01-23T10:30:11.784Z,3.50
2019-01-23T10:32:37.717Z,4.40
2019-01-23T10:35:03.691Z,4.67
2019-01-23T10:37:29.652Z,3.53
2019-01-23T10:39:55.598Z,3.83
2019-01-23T10:42:21.645Z,4.20
2019-01-23T10:44:47.724Z,3.90
2019-01-23T10:47:13.668Z,4.57
2019-01-23T10:49:39.628Z,4.20
2019-01-23T10:52:05.574Z,4.10
2019-01-23T10:54:31.549Z,3.23
2019-01-23T10:56:57.507Z,4.53
2019-01-23T10:59:23.454Z,3.47
2019-01-23T11:01:49.395Z,4.23
2019-01-23T11:04:15.354Z,3.80
2019-01-23T11:06:41.304Z,4.00
2019-01-23T11:09:07.301Z,3.70
2019-01-23T11:11:33.326Z,3.17
2019-01-23T11:13:59.284Z,4.50
2019-01-23T11:16:25.246Z,3.90
2019-01-23T11:18:51.296Z,4.53
2019-01-23T11:21:17.685Z,5.03
2019-01-23T11:23:44.319Z,3.97
2019-01-23T11:26:10.287Z,3.47
2019-01-23T11:28:36.237Z,4.07
2019-01-23T11:31:02.215Z,3.80
2019-01-23T11:33:28.162Z,4.77
2019-01-23T11:35:54.113Z,5.53
2019-01-23T11:38:22.504Z,4.20
2019-01-23T11:40:48.559Z,4.57
2019-01-23T11:43:14.501Z,4.60
2019-01-23T11:45:40.456Z,4.40
2019-01-23T11:48:06.395Z,4.20
2019-01-23T11:50:32.359Z,5.17
2019-01-23T11:52:58.319Z,4.40
2019-01-23T11:55:26.424Z,4.97
2019-01-23T11:57:52.379Z,4.50
2019-01-23T12:00:18.358Z,4.57
2019-01-23T12:02:44.319Z,4.60
2019-01-23T12:05:10.391Z,4.87
2019-01-23T12:07:36.997Z,4.33
2019-01-23T12:10:02.955Z,4.03
2019-01-23T12:12:28.925Z,6.33
2019-01-23T12:14:54.955Z,3.87
2019-01-23T12:17:20.908Z,4.20
2019-01-23T12:19:46.985Z,4.10
2019-01-23T12:22:13.839Z,4.40
2019-01-23T12:24:41.753Z,4.33
2019-01-23T12:27:07.769Z,4.20
2019-01-23T12:29:35.304Z,4.93
2019-01-23T12:32:01.511Z,4.83
2019-01-23T12:34:27.479Z,4.70
2019-01-23T12:36:53.517Z,4.77
2019-01-23T12:39:19.449Z,3.87
2019-01-23T12:41:45.437Z,4.07
2019-01-23T12:44:11.394Z,4.07
2019-01-23T12:46:37.358Z,3.37
2019-01-23T12:49:03.321Z,4.23
2019-01-23T12:51:29.339Z,4.80
2019-01-23T12:53:55.374Z,3.87
2019-01-23T12:56:21.317Z,4.20
2019-01-23T12:58:47.295Z,3.43
2019-01-23T13:01:13.249Z,4.80
2019-01-23T13:03:39.201Z,4.63
2019-01-23T13:06:05.259Z,4.73
2019-01-23T13:08:31.231Z,3.53
2019-01-23T13:10:57.189Z,4.00
2019-01-23T13:13:23.620Z,5.13
2019-01-23T13:15:49.602Z,3.77
2019-01-23T13:18:15.596Z,4.03
2019-01-23T13:20:41.547Z,3.77
2019-01-23T13:23:07.528Z,4.30
2019-01-23T13:25:33.595Z,4.07
2019-01-23T13:27:59.574Z,4.07
2019-01-23T13:30:25.608Z,3.67
2019-01-23T13:32:51.560Z,5.30
2019-01-23T13:35:17.554Z,3.70
2019-01-23T13:37:43.518Z,3.67
2019-01-23T13:40:09.496Z,3.93
2019-01-23T13:42:35.437Z,4.47
2019-01-23T13:45:01.419Z,4.60
2019-01-23T13:47:27.480Z,4.20
2019-01-23T13:49:53.461Z,3.70
2019-01-23T13:52:19.518Z,4.40
2019-01-23T13:54:45.561Z,5.03
2019-01-23T13:57:11.492Z,5.17
2019-01-23T13:59:37.415Z,4.50
2019-01-23T14:02:03.390Z,4.37
2019-01-23T14:04:29.362Z,4.17
2019-01-23T14:06:55.413Z,3.97
2019-01-23T14:09:21.439Z,4.10
2019-01-23T14:11:47.464Z,3.83
2019-01-23T14:14:13.445Z,4.23
2019-01-23T14:16:39.478Z,3.57
2019-01-23T14:19:05.453Z,4.97
2019-01-23T14:21:31.459Z,4.80
2019-01-23T14:23:57.416Z,4.20
2019-01-23T14:26:23.469Z,4.87
2019-01-23T14:28:49.552Z,5.23
2019-01-23T14:31:15.507Z,5.03
2019-01-23T14:33:41.462Z,4.20
2019-01-23T14:36:07.430Z,5.40
2019-01-23T14:38:33.388Z,5.07
2019-01-23T14:40:59.344Z,4.67
2019-01-23T14:43:25.316Z,4.40
2019-01-23T14:45:51.264Z,5.67
2019-01-23T14:48:17.260Z,3.93
2019-01-23T14:50:43.282Z,4.67
2019-01-23T14:53:09.245Z,4.07
2019-01-23T14:55:35.195Z,5.27
2019-01-23T14:58:01.163Z,4.07
2019-01-23T15:00:27.230Z,5.03
2019-01-23T15:02:53.197Z,4.73
2019-01-23T15:05:19.177Z,4.57
2019-01-23T15:07:45.145Z,4.40
2019-01-23T15:10:11.194Z,5.23
2019-01-23T15:12:37.160Z,5.43
2019-01-23T15:15:03.132Z,4.43
2019-01-23T15:17:29.154Z,3.67
2019-01-23T15:19:55.123Z,4.97
2019-01-23T15:22:21.106Z,4.77
2019-01-23T15:24:47.058Z,4.83
2019-01-23T15:27:13.031Z,4.43
2019-01-23T15:29:38.990Z,3.93
2019-01-23T15:32:04.942Z,5.50
2019-01-23T15:34:30.903Z,4.50
2019-01-23T15:36:56.843Z,4.67
2019-01-23T15:39:22.796Z,4.33
2019-01-23T15:41:48.750Z,4.03
2019-01-23T15:44:14.730Z,4.63
2019-01-23T15:46:40.780Z,4.60
2019-01-23T15:49:06.726Z,4.87
2019-01-23T15:51:32.689Z,4.63
2019-01-23T15:53:58.764Z,4.23
2019-01-23T15:56:24.816Z,5.73
2019-01-23T15:58:50.749Z,4.97
2019-01-23T16:01:16.686Z,5.67
2019-01-23T16:03:42.663Z,4.77
2019-01-23T16:06:08.617Z,4.60
2019-01-23T16:08:34.571Z,4.23
2019-01-23T16:11:00.626Z,5.63
2019-01-23T16:13:26.907Z,4.93
2019-01-23T16:15:53.086Z,4.53
2019-01-23T16:18:19.142Z,4.87
2019-01-23T16:20:45.134Z,5.90
2019-01-23T16:23:11.081Z,4.90
2019-01-23T16:25:37.029Z,5.10
2019-01-23T16:28:03.022Z,5.23
2019-01-23T16:30:28.985Z,5.47
2019-01-23T16:32:54.940Z,4.73
2019-01-23T16:35:20.905Z,5.20
2019-01-23T16:37:46.853Z,5.67
2019-01-23T16:40:12.821Z,4.37
2019-01-23T16:42:38.785Z,5.53
2019-01-23T16:45:04.753Z,6.07
2019-01-23T16:47:30.737Z,4.07
2019-01-23T16:49:58.089Z,5.57
2019-01-23T16:52:24.084Z,5.50
2019-01-23T16:54:50.113Z,4.63
2019-01-23T16:57:16.053Z,6.60
2019-01-23T16:59:42.041Z,5.67
2019-01-23T17:02:08.088Z,4.40
2019-01-23T17:04:34.153Z,6.23
2019-01-23T17:07:00.191Z,4.80
2019-01-23T17:09:26.133Z,6.40
2019-01-23T17:11:52.078Z,4.87
2019-01-23T17:14:18.021Z,5.60
2019-01-23T17:16:44.557Z,5.87
2019-01-23T17:19:10.763Z,5.53
2019-01-23T17:21:36.729Z,5.60
2019-01-23T17:24:02.673Z,5.53
2019-01-23T17:26:28.617Z,6.13
2019-01-23T17:28:54.575Z,4.33
2019-01-23T17:31:20.843Z,5.10
2019-01-23T17:33:47.190Z,5.33
2019-01-23T17:36:13.351Z,6.27
2019-01-23T17:38:39.407Z,4.80
2019-01-23T17:41:05.361Z,4.47
2019-01-23T17:43:31.931Z,4.70
2019-01-23T17:45:57.997Z,4.93
2019-01-23T17:48:24.035Z,5.17
2019-01-23T17:50:50.014Z,5.00
2019-01-23T17:53:15.954Z,5.03
2019-01-23T17:55:41.918Z,5.80
2019-01-23T17:58:07.905Z,4.80
2019-01-23T18:00:41.987Z,5.27
2019-01-23T18:03:07.948Z,5.70
2019-01-23T18:05:34.001Z,5.67
2019-01-23T18:07:59.964Z,5.87
2019-01-23T18:10:25.912Z,6.10
2019-01-23T18:12:51.883Z,4.60
2019-01-23T18:15:17.818Z,5.13
2019-01-23T18:17:43.793Z,6.27
2019-01-23T18:20:09.759Z,5.20
2019-01-23T18:22:35.731Z,5.30
2019-01-23T18:25:01.729Z,5.67
2019-01-23T18:27:27.891Z,6.60
2019-01-23T18:29:53.987Z,6.47
2019-01-23T18:32:20.334Z,5.43
2019-01-23T18:34:46.319Z,4.00
2019-01-23T18:37:12.394Z,5.23
2019-01-23T18:39:38.365Z,5.23
2019-01-23T18:42:04.409Z,4.53
2019-01-23T18:44:30.368Z,5.07
2019-01-23T18:46:56.333Z,4.87
2019-01-23T18:49:22.389Z,5.43
2019-01-23T18:51:48.340Z,4.10
2019-01-23T18:54:14.408Z,5.47
2019-01-23T18:56:40.390Z,5.23
2019-01-23T18:59:06.360Z,4.53
2019-01-23T19:01:32.310Z,4.40
2019-01-23T19:03:58.248Z,4.90
2019-01-23T19:06:24.210Z,3.93
2019-01-23T19:08:50.194Z,4.57
2019-01-23T19:11:16.165Z,4.83
2019-01-23T19:13:42.097Z,3.77
2019-01-23T19:16:08.202Z,6.03
2019-01-23T19:18:34.237Z,4.23
2019-01-23T19:21:00.208Z,4.80
2019-01-23T19:23:26.158Z,4.63
2019-01-23T19:25:52.126Z,4.40
2019-01-23T19:28:18.084Z,4.17
2019-01-23T19:30:44.061Z,5.10
2019-01-23T19:33:13.542Z,4.07
2019-01-23T19:35:37.900Z,5.23
2019-01-23T19:38:03.955Z,5.03
2019-01-23T19:40:29.914Z,4.80
2019-01-23T19:42:55.884Z,4.37
2019-01-23T19:45:21.859Z,4.80
2019-01-23T19:47:47.875Z,5.33
2019-01-23T19:50:14.019Z,4.47
2019-01-23T19:52:40.006Z,4.80
2019-01-23T19:55:05.989Z,4.70
2019-01-23T19:57:32.069Z,4.77
2019-01-23T19:59:58.031Z,5.07
2019-01-23T20:02:24.106Z,4.93
2019-01-23T20:04:50.066Z,4.20
2019-01-23T20:07:16.020Z,3.23
2019-01-23T20:09:42.006Z,5.03
2019-01-23T20:12:07.980Z,4.33
2019-01-23T20:14:33.950Z,4.63
2019-01-23T20:17:00.130Z,5.87
2019-01-23T20:19:26.195Z,4.97
2019-01-23T20:21:52.166Z,4.57
2019-01-23T20:24:18.153Z,5.80
2019-01-23T20:26:44.100Z,4.97
2019-01-23T20:29:10.124Z,4.50
2019-01-23T20:31:36.177Z,4.83
2019-01-23T20:34:02.159Z,4.27
2019-01-23T20:36:28.100Z,4.43
2019-01-23T20:38:54.173Z,4.90
2019-01-23T20:41:20.136Z,3.77
2019-01-23T20:43:46.195Z,4.30
2019-01-23T20:46:12.162Z,4.60
2019-01-23T20:48:38.110Z,4.77
2019-01-23T20:51:04.101Z,4.37
2019-01-23T20:53:30.069Z,4.03
2019-01-23T20:55:56.124Z,4.17
2019-01-23T20:58:22.087Z,3.93
2019-01-23T21:00:48.083Z,4.43
2019-01-23T21:03:14.061Z,4.23
2019-01-23T21:05:40.120Z,4.00
2019-01-23T21:08:06.199Z,4.37
2019-01-23T21:10:32.235Z,4.97
2019-01-23T21:12:58.233Z,4.40
2019-01-23T21:15:24.212Z,5.03
2019-01-23T21:17:50.193Z,4.10
2019-01-23T21:20:16.164Z,4.60
2019-01-23T21:22:42.212Z,5.77
2019-01-23T21:25:08.271Z,5.33
2019-01-23T21:27:34.229Z,3.90
2019-01-23T21:30:00.307Z,4.53
2019-01-23T21:32:26.239Z,4.13
2019-01-23T21:34:52.208Z,4.23
2019-01-23T21:37:18.889Z,5.10
2019-01-23T21:39:44.953Z,6.00
2019-01-23T21:42:10.922Z,4.53
2019-01-23T21:44:36.862Z,4.93
2019-01-23T21:47:02.839Z,5.67
2019-01-23T21:49:28.893Z,4.33
2019-01-23T21:51:54.837Z,5.20
2019-01-23T21:54:20.790Z,4.67
2019-01-23T21:56:46.750Z,4.97
2019-01-23T21:59:12.722Z,4.10
2019-01-23T22:01:38.723Z,4.43
2019-01-23T22:04:04.771Z,4.50
2019-01-23T22:06:30.747Z,5.30
2019-01-23T22:08:56.698Z,5.27
2019-01-23T22:11:22.684Z,4.87
2019-01-23T22:13:48.633Z,4.40
2019-01-23T22:16:14.589Z,5.30
2019-01-23T22:18:42.699Z,4.90
2019-01-23T22:21:08.632Z,4.37
2019-01-23T22:23:34.591Z,4.50
2019-01-23T22:26:00.560Z,5.13
2019-01-23T22:28:26.516Z,4.57
2019-01-23T22:30:52.476Z,4.97
2019-01-23T22:33:18.456Z,4.53
2019-01-23T22:35:44.506Z,4.40
2019-01-23T22:38:10.456Z,4.37
2019-01-23T22:40:36.411Z,4.33
2019-01-23T22:43:02.685Z,4.90
2019-01-23T22:45:28.658Z,6.23
2019-01-23T22:47:54.741Z,4.93
2019-01-23T22:50:20.797Z,5.93
2019-01-23T22:52:46.833Z,3.93
2019-01-23T22:55:12.815Z,5.87
2019-01-23T22:57:38.790Z,4.03
2019-01-23T23:00:04.758Z,5.17
2019-01-23T23:02:30.745Z,4.37
2019-01-23T23:04:56.727Z,4.17
2019-01-23T23:07:22.678Z,4.90
2019-01-23T23:09:48.650Z,4.63
2019-01-23T23:12:14.698Z,4.57
2019-01-23T23:14:40.670Z,4.47
2019-01-23T23:17:06.661Z,5.03
2019-01-23T23:19:32.614Z,4.63
2019-01-23T23:21:58.565Z,3.17
2019-01-23T23:24:24.507Z,4.27
2019-01-23T23:26:50.474Z,6.13
2019-01-23T23:29:16.417Z,4.63
2019-01-23T23:31:42.386Z,4.67
2019-01-23T23:34:10.074Z,4.23
2019-01-23T23:36:36.228Z,4.63
2019-01-23T23:39:02.489Z,4.97
2019-01-23T23:41:28.416Z,4.13
2019-01-23T23:43:54.378Z,4.67
2019-01-23T23:46:20.356Z,5.77
2019-01-23T23:48:46.305Z,4.80
2019-01-23T23:51:12.227Z,5.27
2019-01-23T23:53:38.193Z,4.63
2019-01-23T23:56:04.157Z,4.37
2019-01-23T23:58:30.210Z,5.40
